createdAt,value
2023-03-22T08:45:14.299Z,35.55
2023-03-22T08:47:48.640Z,35.75
2023-03-22T08:50:18.433Z,34.03
2023-03-22T08:52:53.737Z,36.05
2023-03-22T08:55:35.682Z,36.45
2023-03-22T08:58:23.983Z,36.33
2023-03-22T09:01:17.213Z,35.80
2023-03-22T09:03:50.466Z,35.83
2023-03-22T09:06:18.225Z,33.58
2023-03-22T09:08:47.200Z,35.50
2023-03-22T09:11:17.947Z,33.55
2023-03-22T09:13:51.330Z,32.53
2023-03-22T09:16:19.859Z,32.80
2023-03-22T09:18:48.187Z,30.73
2023-03-22T09:21:18.551Z,31.17
2023-03-22T09:23:52.768Z,31.75
2023-03-22T09:26:25.704Z,34.92
2023-03-22T09:28:54.619Z,33.65
2023-03-22T09:31:22.390Z,36.78
2023-03-22T09:34:01.910Z,34.65
2023-03-22T09:36:29.497Z,35.20
2023-03-22T09:38:56.915Z,35.95
2023-03-22T09:41:33.031Z,33.65
2023-03-22T09:44:05.234Z,32.72
2023-03-22T09:46:40.938Z,31.95
2023-03-22T09:49:16.309Z,34.27
2023-03-22T09:51:46.605Z,34.03
2023-03-22T09:54:21.671Z,33.58
2023-03-22T09:57:18.409Z,32.47
2023-03-22T09:59:54.875Z,33.03
2023-03-22T10:02:46.420Z,32.00
2023-03-22T10:05:13.878Z,31.80
2023-03-22T10:08:01.211Z,32.53
2023-03-22T10:10:28.998Z,34.38
2023-03-22T10:13:03.129Z,32.47
2023-03-22T10:15:36.956Z,33.60
2023-03-22T10:18:08.726Z,33.50
2023-03-22T10:20:39.100Z,31.38
2023-03-22T10:23:14.380Z,32.97
2023-03-22T10:25:43.212Z,32.23
2023-03-22T10:28:19.399Z,31.15
2023-03-22T10:30:53.518Z,33.28
2023-03-22T10:33:38.541Z,32.75
2023-03-22T10:36:14.000Z,29.92
2023-03-22T10:38:50.009Z,30.40
2023-03-22T10:41:20.665Z,29.65
2023-03-22T10:43:52.017Z,31.58
2023-03-22T10:46:23.267Z,31.88
2023-03-22T10:48:54.092Z,28.80
2023-03-22T10:51:26.238Z,26.88
2023-03-22T10:53:56.160Z,32.38
2023-03-22T10:56:25.107Z,31.38
2023-03-22T10:58:54.807Z,32.30
2023-03-22T11:01:36.884Z,33.13
2023-03-22T11:04:09.989Z,34.15
2023-03-22T11:06:54.731Z,31.83
2023-03-22T11:09:24.630Z,30.95
2023-03-22T11:12:02.940Z,29.67
2023-03-22T11:14:36.946Z,31.25
2023-03-22T11:17:12.630Z,31.67
2023-03-22T11:19:50.344Z,31.92
2023-03-22T11:22:33.281Z,31.73
2023-03-22T11:25:01.367Z,28.95
2023-03-22T11:27:33.902Z,30.23
2023-03-22T11:30:25.551Z,30.98
2023-03-22T11:33:19.545Z,31.08
2023-03-22T11:35:54.298Z,31.67
2023-03-22T11:38:30.293Z,30.67
2023-03-22T11:43:44.088Z,30.17
2023-03-22T11:46:12.409Z,28.33
2023-03-22T11:48:42.329Z,30.08
2023-03-22T11:51:19.548Z,27.13
2023-03-22T11:53:48.765Z,28.52
2023-03-22T11:56:21.983Z,29.05
2023-03-22T11:59:13.261Z,28.95
2023-03-22T12:01:51.405Z,29.00
2023-03-22T12:04:27.070Z,27.73
2023-03-22T12:07:00.733Z,28.30
2023-03-22T12:09:49.062Z,29.23
2023-03-22T12:12:21.753Z,29.23
2023-03-22T12:15:15.538Z,28.05
2023-03-22T12:17:43.036Z,26.73
2023-03-22T12:20:35.043Z,29.48
2023-03-22T12:23:09.421Z,27.65
2023-03-22T12:25:38.272Z,25.90
2023-03-22T12:28:10.019Z,26.98
2023-03-22T12:30:51.423Z,25.80
2023-03-22T12:33:32.841Z,27.38
2023-03-22T12:36:06.538Z,25.50
2023-03-22T12:39:00.756Z,25.70
2023-03-22T12:41:35.868Z,25.77
2023-03-22T12:44:11.929Z,25.20
2023-03-22T12:49:41.593Z,26.30
2023-03-22T12:52:37.655Z,26.40
2023-03-22T12:55:29.469Z,27.10
2023-03-22T12:57:57.438Z,26.60
2023-03-22T13:00:41.091Z,25.95
2023-03-22T13:03:21.139Z,25.42
2023-03-22T13:05:50.795Z,24.52
2023-03-22T13:08:22.858Z,25.17
2023-03-22T13:11:03.445Z,22.95
2023-03-22T13:13:42.220Z,23.63
2023-03-22T13:16:09.861Z,22.92
2023-03-22T13:18:40.365Z,25.83
2023-03-22T13:21:36.722Z,27.88
2023-03-22T13:24:10.543Z,25.77
2023-03-22T13:26:54.439Z,24.30
2023-03-22T13:29:38.134Z,24.00
2023-03-22T13:32:30.317Z,23.30
2023-03-22T13:34:57.904Z,26.67
2023-03-22T13:37:47.344Z,25.20
2023-03-22T13:40:29.874Z,25.27
2023-03-22T13:43:34.400Z,25.98
2023-03-22T13:46:22.249Z,27.20
2023-03-22T13:48:50.752Z,25.20
2023-03-22T13:51:23.439Z,23.02
2023-03-22T13:54:09.358Z,23.55
2023-03-22T13:56:59.616Z,22.10
2023-03-22T13:59:27.451Z,21.55
2023-03-22T14:02:07.566Z,23.77
2023-03-22T14:04:45.640Z,23.38
2023-03-22T14:07:40.272Z,22.42
2023-03-22T14:10:22.889Z,22.00
2023-03-22T14:13:19.086Z,21.48
2023-03-22T14:16:30.210Z,20.50
2023-03-22T14:18:58.174Z,19.85
2023-03-22T14:21:34.403Z,20.45
